sensor_id;sensor_type;location;lat;lon;timestamp;P1;durP1;ratioP1;P2;durP2;ratioP2
23684;SDS011;12020;51.384;6.908;2023-04-26T00:00:22;4.33;;;2.80;;
23684;SDS011;12020;51.384;6.908;2023-04-26T00:02:58;3.50;;;2.60;;
23684;SDS011;12020;51.384;6.908;2023-04-26T00:05:24;5.43;;;2.70;;
23684;SDS011;12020;51.384;6.908;2023-04-26T00:07:50;6.82;;;2.92;;
23684;SDS011;12020;51.384;6.908;2023-04-26T00:10:17;4.75;;;2.88;;
23684;SDS011;12020;51.384;6.908;2023-04-26T00:12:43;4.85;;;2.90;;
23684;SDS011;12020;51.384;6.908;2023-04-26T00:15:08;5.40;;;2.65;;
23684;SDS011;12020;51.384;6.908;2023-04-26T00:17:35;5.47;;;2.85;;
23684;SDS011;12020;51.384;6.908;2023-04-26T00:20:02;5.55;;;2.85;;
23684;SDS011;12020;51.384;6.908;2023-04-26T00:22:33;4.35;;;2.97;;
23684;SDS011;12020;51.384;6.908;2023-04-26T00:24:59;4.43;;;3.00;;
23684;SDS011;12020;51.384;6.908;2023-04-26T00:27:25;5.45;;;2.97;;
23684;SDS011;12020;51.384;6.908;2023-04-26T00:29:51;4.17;;;2.97;;
23684;SDS011;12020;51.384;6.908;2023-04-26T00:32:19;5.15;;;2.88;;
23684;SDS011;12020;51.384;6.908;2023-04-26T00:34:45;7.13;;;3.30;;
23684;SDS011;12020;51.384;6.908;2023-04-26T00:37:12;7.85;;;3.08;;
23684;SDS011;12020;51.384;6.908;2023-04-26T00:39:38;5.45;;;3.03;;
23684;SDS011;12020;51.384;6.908;2023-04-26T00:42:04;5.30;;;3.28;;
23684;SDS011;12020;51.384;6.908;2023-04-26T00:44:30;4.60;;;2.90;;
23684;SDS011;12020;51.384;6.908;2023-04-26T00:46:56;6.33;;;3.10;;
23684;SDS011;12020;51.384;6.908;2023-04-26T00:49:23;6.32;;;3.10;;
23684;SDS011;12020;51.384;6.908;2023-04-26T00:51:50;5.32;;;3.05;;
23684;SDS011;12020;51.384;6.908;2023-04-26T00:54:17;5.28;;;3.25;;
23684;SDS011;12020;51.384;6.908;2023-04-26T00:56:45;4.13;;;3.15;;
23684;SDS011;12020;51.384;6.908;2023-04-26T00:59:11;4.35;;;3.00;;
23684;SDS011;12020;51.384;6.908;2023-04-26T01:01:37;5.40;;;3.08;;
23684;SDS011;12020;51.384;6.908;2023-04-26T01:04:04;4.90;;;3.27;;
23684;SDS011;12020;51.384;6.908;2023-04-26T01:06:32;4.57;;;3.10;;
23684;SDS011;12020;51.384;6.908;2023-04-26T01:08:59;7.03;;;3.22;;
23684;SDS011;12020;51.384;6.908;2023-04-26T01:11:28;5.30;;;3.30;;
23684;SDS011;12020;51.384;6.908;2023-04-26T01:13:56;4.00;;;3.03;;
23684;SDS011;12020;51.384;6.908;2023-04-26T01:16:22;5.32;;;3.42;;
23684;SDS011;12020;51.384;6.908;2023-04-26T01:18:52;5.57;;;3.25;;
23684;SDS011;12020;51.384;6.908;2023-04-26T01:21:22;4.60;;;2.78;;
23684;SDS011;12020;51.384;6.908;2023-04-26T01:23:48;6.22;;;3.42;;
23684;SDS011;12020;51.384;6.908;2023-04-26T01:26:17;4.68;;;3.20;;
23684;SDS011;12020;51.384;6.908;2023-04-26T01:28:43;5.35;;;3.55;;
23684;SDS011;12020;51.384;6.908;2023-04-26T01:31:10;5.32;;;3.50;;
23684;SDS011;12020;51.384;6.908;2023-04-26T01:33:37;4.30;;;3.22;;
23684;SDS011;12020;51.384;6.908;2023-04-26T01:36:07;5.80;;;3.67;;
23684;SDS011;12020;51.384;6.908;2023-04-26T01:38:34;5.10;;;3.45;;
23684;SDS011;12020;51.384;6.908;2023-04-26T01:41:01;5.77;;;3.93;;
23684;SDS011;12020;51.384;6.908;2023-04-26T01:43:26;6.63;;;3.90;;
23684;SDS011;12020;51.384;6.908;2023-04-26T01:45:53;6.28;;;3.95;;
23684;SDS011;12020;51.384;6.908;2023-04-26T01:48:19;5.80;;;4.00;;
23684;SDS011;12020;51.384;6.908;2023-04-26T01:50:45;6.68;;;4.00;;
23684;SDS011;12020;51.384;6.908;2023-04-26T01:53:11;6.53;;;4.15;;
23684;SDS011;12020;51.384;6.908;2023-04-26T01:55:37;6.40;;;4.28;;
23684;SDS011;12020;51.384;6.908;2023-04-26T01:58:04;5.57;;;4.15;;
23684;SDS011;12020;51.384;6.908;2023-04-26T02:00:30;5.90;;;4.13;;
23684;SDS011;12020;51.384;6.908;2023-04-26T02:02:56;6.00;;;4.40;;
23684;SDS011;12020;51.384;6.908;2023-04-26T02:05:23;7.03;;;4.83;;
23684;SDS011;12020;51.384;6.908;2023-04-26T02:07:49;6.72;;;3.90;;
23684;SDS011;12020;51.384;6.908;2023-04-26T02:10:15;6.75;;;4.13;;
23684;SDS011;12020;51.384;6.908;2023-04-26T02:12:41;5.45;;;4.07;;
23684;SDS011;12020;51.384;6.908;2023-04-26T02:15:07;7.43;;;4.18;;
23684;SDS011;12020;51.384;6.908;2023-04-26T02:17:35;6.90;;;4.28;;
23684;SDS011;12020;51.384;6.908;2023-04-26T02:20:01;7.63;;;4.35;;
23684;SDS011;12020;51.384;6.908;2023-04-26T02:22:28;7.37;;;4.60;;
23684;SDS011;12020;51.384;6.908;2023-04-26T02:24:55;6.43;;;4.00;;
23684;SDS011;12020;51.384;6.908;2023-04-26T02:27:22;6.30;;;4.00;;
23684;SDS011;12020;51.384;6.908;2023-04-26T02:29:48;4.73;;;4.17;;
23684;SDS011;12020;51.384;6.908;2023-04-26T02:32:14;7.70;;;4.40;;
23684;SDS011;12020;51.384;6.908;2023-04-26T02:34:40;6.37;;;4.67;;
23684;SDS011;12020;51.384;6.908;2023-04-26T02:37:06;6.55;;;4.38;;
23684;SDS011;12020;51.384;6.908;2023-04-26T02:39:33;6.68;;;4.85;;
23684;SDS011;12020;51.384;6.908;2023-04-26T02:42:00;7.80;;;4.82;;
23684;SDS011;12020;51.384;6.908;2023-04-26T02:44:29;7.47;;;4.90;;
23684;SDS011;12020;51.384;6.908;2023-04-26T02:46:56;6.32;;;4.90;;
23684;SDS011;12020;51.384;6.908;2023-04-26T02:49:22;6.00;;;4.97;;
23684;SDS011;12020;51.384;6.908;2023-04-26T02:51:48;6.75;;;5.07;;
23684;SDS011;12020;51.384;6.908;2023-04-26T02:54:14;7.80;;;5.10;;
23684;SDS011;12020;51.384;6.908;2023-04-26T02:56:40;7.13;;;4.72;;
23684;SDS011;12020;51.384;6.908;2023-04-26T02:59:06;6.70;;;4.73;;
23684;SDS011;12020;51.384;6.908;2023-04-26T03:01:33;6.65;;;5.25;;
23684;SDS011;12020;51.384;6.908;2023-04-26T03:03:59;7.72;;;5.05;;
23684;SDS011;12020;51.384;6.908;2023-04-26T03:06:25;8.70;;;5.30;;
23684;SDS011;12020;51.384;6.908;2023-04-26T03:08:52;9.23;;;5.47;;
23684;SDS011;12020;51.384;6.908;2023-04-26T03:11:18;5.53;;;4.57;;
23684;SDS011;12020;51.384;6.908;2023-04-26T03:13:44;8.45;;;5.22;;
23684;SDS011;12020;51.384;6.908;2023-04-26T03:16:11;7.97;;;5.32;;
23684;SDS011;12020;51.384;6.908;2023-04-26T03:18:37;8.48;;;5.43;;
23684;SDS011;12020;51.384;6.908;2023-04-26T03:21:03;7.22;;;4.90;;
23684;SDS011;12020;51.384;6.908;2023-04-26T03:23:30;6.75;;;5.65;;
23684;SDS011;12020;51.384;6.908;2023-04-26T03:25:56;7.57;;;5.72;;
23684;SDS011;12020;51.384;6.908;2023-04-26T03:28:22;6.57;;;4.80;;
23684;SDS011;12020;51.384;6.908;2023-04-26T03:30:49;9.00;;;5.90;;
23684;SDS011;12020;51.384;6.908;2023-04-26T03:33:16;7.13;;;5.55;;
23684;SDS011;12020;51.384;6.908;2023-04-26T03:35:42;8.35;;;5.90;;
23684;SDS011;12020;51.384;6.908;2023-04-26T03:38:07;7.75;;;5.78;;
23684;SDS011;12020;51.384;6.908;2023-04-26T03:40:34;7.90;;;5.68;;
23684;SDS011;12020;51.384;6.908;2023-04-26T03:43:00;9.30;;;5.78;;
23684;SDS011;12020;51.384;6.908;2023-04-26T03:45:26;6.85;;;6.10;;
23684;SDS011;12020;51.384;6.908;2023-04-26T03:47:52;9.02;;;6.30;;
23684;SDS011;12020;51.384;6.908;2023-04-26T03:50:18;8.03;;;6.30;;
23684;SDS011;12020;51.384;6.908;2023-04-26T03:52:44;9.68;;;5.95;;
23684;SDS011;12020;51.384;6.908;2023-04-26T03:55:10;9.25;;;6.05;;
23684;SDS011;12020;51.384;6.908;2023-04-26T03:57:37;8.88;;;6.13;;
23684;SDS011;12020;51.384;6.908;2023-04-26T04:00:03;10.10;;;7.10;;
23684;SDS011;12020;51.384;6.908;2023-04-26T04:02:37;7.50;;;5.72;;
23684;SDS011;12020;51.384;6.908;2023-04-26T04:05:10;9.50;;;6.57;;
23684;SDS011;12020;51.384;6.908;2023-04-26T04:07:36;9.88;;;6.18;;
23684;SDS011;12020;51.384;6.908;2023-04-26T04:10:03;9.65;;;6.68;;
23684;SDS011;12020;51.384;6.908;2023-04-26T04:12:29;7.82;;;5.93;;
23684;SDS011;12020;51.384;6.908;2023-04-26T04:14:55;8.63;;;6.32;;
23684;SDS011;12020;51.384;6.908;2023-04-26T04:17:21;7.90;;;6.10;;
23684;SDS011;12020;51.384;6.908;2023-04-26T04:19:47;8.80;;;6.70;;
23684;SDS011;12020;51.384;6.908;2023-04-26T04:22:14;7.40;;;6.25;;
23684;SDS011;12020;51.384;6.908;2023-04-26T04:24:40;7.57;;;5.80;;
23684;SDS011;12020;51.384;6.908;2023-04-26T04:27:08;9.13;;;6.70;;
23684;SDS011;12020;51.384;6.908;2023-04-26T04:29:34;7.80;;;6.43;;
23684;SDS011;12020;51.384;6.908;2023-04-26T04:32:00;7.80;;;6.03;;
23684;SDS011;12020;51.384;6.908;2023-04-26T04:34:26;7.75;;;6.40;;
23684;SDS011;12020;51.384;6.908;2023-04-26T04:36:52;8.23;;;6.60;;
23684;SDS011;12020;51.384;6.908;2023-04-26T04:39:18;8.17;;;6.60;;
23684;SDS011;12020;51.384;6.908;2023-04-26T04:41:45;8.50;;;7.22;;
23684;SDS011;12020;51.384;6.908;2023-04-26T04:44:14;8.30;;;6.78;;
23684;SDS011;12020;51.384;6.908;2023-04-26T04:46:40;9.68;;;7.50;;
23684;SDS011;12020;51.384;6.908;2023-04-26T04:49:07;8.20;;;7.28;;
23684;SDS011;12020;51.384;6.908;2023-04-26T04:51:34;11.13;;;7.72;;
23684;SDS011;12020;51.384;6.908;2023-04-26T04:54:13;10.00;;;7.28;;
23684;SDS011;12020;51.384;6.908;2023-04-26T04:56:40;9.10;;;7.15;;
23684;SDS011;12020;51.384;6.908;2023-04-26T04:59:06;10.38;;;6.80;;
23684;SDS011;12020;51.384;6.908;2023-04-26T05:01:33;8.70;;;7.05;;
23684;SDS011;12020;51.384;6.908;2023-04-26T05:04:01;11.98;;;8.18;;
23684;SDS011;12020;51.384;6.908;2023-04-26T05:06:28;10.63;;;7.53;;
23684;SDS011;12020;51.384;6.908;2023-04-26T05:08:54;10.50;;;7.82;;
23684;SDS011;12020;51.384;6.908;2023-04-26T05:11:21;9.73;;;7.97;;
23684;SDS011;12020;51.384;6.908;2023-04-26T05:13:47;10.87;;;7.77;;
23684;SDS011;12020;51.384;6.908;2023-04-26T05:16:13;11.20;;;7.93;;
23684;SDS011;12020;51.384;6.908;2023-04-26T05:18:39;11.20;;;7.85;;
23684;SDS011;12020;51.384;6.908;2023-04-26T05:21:06;8.70;;;7.50;;
23684;SDS011;12020;51.384;6.908;2023-04-26T05:23:32;9.85;;;7.53;;
23684;SDS011;12020;51.384;6.908;2023-04-26T05:26:03;10.15;;;8.30;;
23684;SDS011;12020;51.384;6.908;2023-04-26T05:28:30;11.65;;;8.55;;
23684;SDS011;12020;51.384;6.908;2023-04-26T05:30:56;9.50;;;8.07;;
23684;SDS011;12020;51.384;6.908;2023-04-26T05:33:23;10.20;;;8.27;;
23684;SDS011;12020;51.384;6.908;2023-04-26T05:35:49;12.30;;;8.55;;
23684;SDS011;12020;51.384;6.908;2023-04-26T05:38:16;9.77;;;8.30;;
23684;SDS011;12020;51.384;6.908;2023-04-26T05:40:43;11.45;;;9.30;;
23684;SDS011;12020;51.384;6.908;2023-04-26T05:43:09;12.30;;;9.65;;
23684;SDS011;12020;51.384;6.908;2023-04-26T05:45:35;12.40;;;8.77;;
23684;SDS011;12020;51.384;6.908;2023-04-26T05:48:01;10.82;;;8.93;;
23684;SDS011;12020;51.384;6.908;2023-04-26T05:50:26;12.38;;;9.35;;
23684;SDS011;12020;51.384;6.908;2023-04-26T05:52:52;13.18;;;9.68;;
23684;SDS011;12020;51.384;6.908;2023-04-26T05:55:19;11.87;;;9.33;;
23684;SDS011;12020;51.384;6.908;2023-04-26T05:57:45;14.30;;;10.73;;
23684;SDS011;12020;51.384;6.908;2023-04-26T06:00:11;17.08;;;12.70;;
23684;SDS011;12020;51.384;6.908;2023-04-26T06:02:37;19.20;;;13.77;;
23684;SDS011;12020;51.384;6.908;2023-04-26T06:05:03;16.03;;;13.00;;
23684;SDS011;12020;51.384;6.908;2023-04-26T06:07:32;17.52;;;14.20;;
23684;SDS011;12020;51.384;6.908;2023-04-26T06:10:02;18.57;;;14.53;;
23684;SDS011;12020;51.384;6.908;2023-04-26T06:12:28;18.25;;;14.10;;
23684;SDS011;12020;51.384;6.908;2023-04-26T06:14:54;18.98;;;14.77;;
23684;SDS011;12020;51.384;6.908;2023-04-26T06:17:20;19.80;;;15.88;;
23684;SDS011;12020;51.384;6.908;2023-04-26T06:19:46;20.33;;;15.20;;
23684;SDS011;12020;51.384;6.908;2023-04-26T06:22:12;18.65;;;14.73;;
23684;SDS011;12020;51.384;6.908;2023-04-26T06:24:39;21.03;;;14.67;;
23684;SDS011;12020;51.384;6.908;2023-04-26T06:27:05;18.75;;;14.73;;
23684;SDS011;12020;51.384;6.908;2023-04-26T06:29:31;18.57;;;13.93;;
23684;SDS011;12020;51.384;6.908;2023-04-26T06:32:00;18.70;;;14.98;;
23684;SDS011;12020;51.384;6.908;2023-04-26T06:34:26;21.27;;;14.23;;
23684;SDS011;12020;51.384;6.908;2023-04-26T06:36:52;19.97;;;14.13;;
23684;SDS011;12020;51.384;6.908;2023-04-26T06:39:18;20.05;;;13.80;;
23684;SDS011;12020;51.384;6.908;2023-04-26T06:41:44;21.33;;;13.82;;
23684;SDS011;12020;51.384;6.908;2023-04-26T06:44:10;18.57;;;13.93;;
23684;SDS011;12020;51.384;6.908;2023-04-26T06:46:36;18.65;;;13.52;;
23684;SDS011;12020;51.384;6.908;2023-04-26T06:49:02;19.17;;;14.27;;
23684;SDS011;12020;51.384;6.908;2023-04-26T06:51:29;20.17;;;13.73;;
23684;SDS011;12020;51.384;6.908;2023-04-26T06:53:55;20.30;;;14.75;;
23684;SDS011;12020;51.384;6.908;2023-04-26T06:56:23;17.45;;;14.00;;
23684;SDS011;12020;51.384;6.908;2023-04-26T06:59:00;18.87;;;14.53;;
23684;SDS011;12020;51.384;6.908;2023-04-26T07:01:27;20.47;;;13.90;;
23684;SDS011;12020;51.384;6.908;2023-04-26T07:03:56;20.17;;;14.07;;
23684;SDS011;12020;51.384;6.908;2023-04-26T07:06:23;18.40;;;13.73;;
23684;SDS011;12020;51.384;6.908;2023-04-26T07:08:50;23.70;;;13.23;;
23684;SDS011;12020;51.384;6.908;2023-04-26T07:11:16;16.57;;;12.77;;
23684;SDS011;12020;51.384;6.908;2023-04-26T07:13:42;16.38;;;12.05;;
23684;SDS011;12020;51.384;6.908;2023-04-26T07:16:08;14.20;;;12.32;;
23684;SDS011;12020;51.384;6.908;2023-04-26T07:18:34;20.75;;;11.80;;
23684;SDS011;12020;51.384;6.908;2023-04-26T07:21:00;17.33;;;11.23;;
23684;SDS011;12020;51.384;6.908;2023-04-26T07:23:26;16.60;;;12.37;;
23684;SDS011;12020;51.384;6.908;2023-04-26T07:25:53;17.30;;;11.82;;
23684;SDS011;12020;51.384;6.908;2023-04-26T07:28:19;16.80;;;11.55;;
23684;SDS011;12020;51.384;6.908;2023-04-26T07:30:46;14.82;;;11.60;;
23684;SDS011;12020;51.384;6.908;2023-04-26T07:33:11;12.63;;;8.90;;
23684;SDS011;12020;51.384;6.908;2023-04-26T07:35:38;13.60;;;7.70;;
23684;SDS011;12020;51.384;6.908;2023-04-26T07:38:04;15.80;;;7.10;;
23684;SDS011;12020;51.384;6.908;2023-04-26T07:40:32;13.60;;;8.25;;
23684;SDS011;12020;51.384;6.908;2023-04-26T07:42:58;13.43;;;7.47;;
23684;SDS011;12020;51.384;6.908;2023-04-26T07:45:24;11.75;;;7.95;;
23684;SDS011;12020;51.384;6.908;2023-04-26T07:47:50;11.82;;;7.05;;
23684;SDS011;12020;51.384;6.908;2023-04-26T07:50:17;10.10;;;6.00;;
23684;SDS011;12020;51.384;6.908;2023-04-26T07:52:42;12.88;;;7.50;;
23684;SDS011;12020;51.384;6.908;2023-04-26T07:55:10;14.13;;;8.50;;
23684;SDS011;12020;51.384;6.908;2023-04-26T07:57:36;12.88;;;8.00;;
23684;SDS011;12020;51.384;6.908;2023-04-26T08:00:02;11.32;;;6.65;;
23684;SDS011;12020;51.384;6.908;2023-04-26T08:02:34;10.43;;;6.72;;
23684;SDS011;12020;51.384;6.908;2023-04-26T08:05:00;11.45;;;6.80;;
23684;SDS011;12020;51.384;6.908;2023-04-26T08:07:25;12.13;;;7.90;;
23684;SDS011;12020;51.384;6.908;2023-04-26T08:09:51;12.05;;;9.13;;
23684;SDS011;12020;51.384;6.908;2023-04-26T08:12:17;14.05;;;8.82;;
23684;SDS011;12020;51.384;6.908;2023-04-26T08:14:44;11.40;;;6.80;;
23684;SDS011;12020;51.384;6.908;2023-04-26T08:17:10;13.27;;;7.97;;
23684;SDS011;12020;51.384;6.908;2023-04-26T08:19:37;13.13;;;7.20;;
23684;SDS011;12020;51.384;6.908;2023-04-26T08:22:02;14.32;;;8.35;;
23684;SDS011;12020;51.384;6.908;2023-04-26T08:24:29;10.93;;;8.32;;
23684;SDS011;12020;51.384;6.908;2023-04-26T08:26:55;16.08;;;10.27;;
23684;SDS011;12020;51.384;6.908;2023-04-26T08:29:23;16.08;;;11.13;;
23684;SDS011;12020;51.384;6.908;2023-04-26T08:31:52;15.43;;;10.23;;
23684;SDS011;12020;51.384;6.908;2023-04-26T08:34:17;17.20;;;12.30;;
23684;SDS011;12020;51.384;6.908;2023-04-26T08:36:43;18.17;;;12.63;;
23684;SDS011;12020;51.384;6.908;2023-04-26T08:39:09;15.18;;;10.20;;
23684;SDS011;12020;51.384;6.908;2023-04-26T08:41:39;15.68;;;10.93;;
23684;SDS011;12020;51.384;6.908;2023-04-26T08:44:08;13.80;;;10.02;;
23684;SDS011;12020;51.384;6.908;2023-04-26T08:46:48;13.80;;;9.73;;
23684;SDS011;12020;51.384;6.908;2023-04-26T08:49:44;11.30;;;8.02;;
23684;SDS011;12020;51.384;6.908;2023-04-26T08:52:22;11.15;;;7.90;;
23684;SDS011;12020;51.384;6.908;2023-04-26T08:54:49;12.90;;;8.57;;
23684;SDS011;12020;51.384;6.908;2023-04-26T08:57:16;12.00;;;8.35;;
23684;SDS011;12020;51.384;6.908;2023-04-26T08:59:43;10.25;;;8.18;;
23684;SDS011;12020;51.384;6.908;2023-04-26T09:02:10;9.90;;;7.03;;
23684;SDS011;12020;51.384;6.908;2023-04-26T09:04:42;9.25;;;7.28;;
23684;SDS011;12020;51.384;6.908;2023-04-26T09:07:09;9.52;;;6.90;;
23684;SDS011;12020;51.384;6.908;2023-04-26T09:10:11;9.95;;;6.47;;
23684;SDS011;12020;51.384;6.908;2023-04-26T09:12:37;11.88;;;6.50;;
23684;SDS011;12020;51.384;6.908;2023-04-26T09:15:04;8.38;;;5.90;;
23684;SDS011;12020;51.384;6.908;2023-04-26T09:17:37;8.80;;;5.67;;
23684;SDS011;12020;51.384;6.908;2023-04-26T09:22:47;9.65;;;6.38;;
23684;SDS011;12020;51.384;6.908;2023-04-26T09:25:15;8.80;;;6.30;;
23684;SDS011;12020;51.384;6.908;2023-04-26T09:27:43;9.77;;;6.15;;
23684;SDS011;12020;51.384;6.908;2023-04-26T09:30:13;9.88;;;5.80;;
23684;SDS011;12020;51.384;6.908;2023-04-26T09:33:01;7.70;;;5.15;;
23684;SDS011;12020;51.384;6.908;2023-04-26T09:35:33;8.57;;;5.40;;
23684;SDS011;12020;51.384;6.908;2023-04-26T09:38:01;9.67;;;5.80;;
23684;SDS011;12020;51.384;6.908;2023-04-26T09:40:30;8.00;;;5.35;;
23684;SDS011;12020;51.384;6.908;2023-04-26T09:43:10;10.15;;;5.60;;
23684;SDS011;12020;51.384;6.908;2023-04-26T09:50:54;6.88;;;4.32;;
23684;SDS011;12020;51.384;6.908;2023-04-26T09:53:34;7.43;;;4.28;;
23684;SDS011;12020;51.384;6.908;2023-04-26T09:56:08;7.25;;;4.32;;
23684;SDS011;12020;51.384;6.908;2023-04-26T10:01:13;6.70;;;4.38;;
23684;SDS011;12020;51.384;6.908;2023-04-26T10:03:41;7.57;;;4.03;;
23684;SDS011;12020;51.384;6.908;2023-04-26T10:06:13;8.18;;;4.50;;
23684;SDS011;12020;51.384;6.908;2023-04-26T10:08:39;7.72;;;4.70;;
23684;SDS011;12020;51.384;6.908;2023-04-26T10:11:06;6.68;;;4.25;;
23684;SDS011;12020;51.384;6.908;2023-04-26T10:13:35;6.47;;;4.80;;
23684;SDS011;12020;51.384;6.908;2023-04-26T10:16:02;11.23;;;5.15;;
23684;SDS011;12020;51.384;6.908;2023-04-26T10:18:28;5.88;;;4.35;;
23684;SDS011;12020;51.384;6.908;2023-04-26T10:20:59;7.83;;;4.00;;
23684;SDS011;12020;51.384;6.908;2023-04-26T10:23:46;6.78;;;4.10;;
23684;SDS011;12020;51.384;6.908;2023-04-26T10:29:21;6.57;;;4.30;;
23684;SDS011;12020;51.384;6.908;2023-04-26T10:34:26;6.63;;;3.67;;
23684;SDS011;12020;51.384;6.908;2023-04-26T10:37:12;6.68;;;4.00;;
23684;SDS011;12020;51.384;6.908;2023-04-26T10:39:43;7.57;;;4.03;;
23684;SDS011;12020;51.384;6.908;2023-04-26T10:44:58;8.70;;;4.00;;
23684;SDS011;12020;51.384;6.908;2023-04-26T10:47:30;7.03;;;3.95;;
23684;SDS011;12020;51.384;6.908;2023-04-26T10:50:05;5.47;;;4.03;;
23684;SDS011;12020;51.384;6.908;2023-04-26T10:53:19;8.70;;;4.40;;
23684;SDS011;12020;51.384;6.908;2023-04-26T10:55:46;6.20;;;4.13;;
23684;SDS011;12020;51.384;6.908;2023-04-26T10:58:30;5.78;;;3.53;;
23684;SDS011;12020;51.384;6.908;2023-04-26T11:06:23;6.32;;;4.13;;
23684;SDS011;12020;51.384;6.908;2023-04-26T11:08:50;6.38;;;4.05;;
23684;SDS011;12020;51.384;6.908;2023-04-26T11:11:17;6.70;;;3.70;;
23684;SDS011;12020;51.384;6.908;2023-04-26T11:13:46;5.90;;;3.28;;
23684;SDS011;12020;51.384;6.908;2023-04-26T11:16:13;4.33;;;3.30;;
23684;SDS011;12020;51.384;6.908;2023-04-26T11:18:41;6.88;;;3.53;;
23684;SDS011;12020;51.384;6.908;2023-04-26T11:21:11;5.55;;;3.60;;
23684;SDS011;12020;51.384;6.908;2023-04-26T11:23:41;4.70;;;3.10;;
23684;SDS011;12020;51.384;6.908;2023-04-26T11:26:08;5.45;;;2.90;;
23684;SDS011;12020;51.384;6.908;2023-04-26T11:28:34;5.30;;;3.40;;
23684;SDS011;12020;51.384;6.908;2023-04-26T11:31:02;5.10;;;3.30;;
23684;SDS011;12020;51.384;6.908;2023-04-26T11:33:29;8.10;;;4.15;;
23684;SDS011;12020;51.384;6.908;2023-04-26T11:35:57;5.32;;;3.80;;
23684;SDS011;12020;51.384;6.908;2023-04-26T11:38:23;5.28;;;3.90;;
23684;SDS011;12020;51.384;6.908;2023-04-26T11:41:00;6.57;;;3.80;;
23684;SDS011;12020;51.384;6.908;2023-04-26T11:46:03;6.47;;;3.50;;
23684;SDS011;12020;51.384;6.908;2023-04-26T11:48:30;9.02;;;3.90;;
23684;SDS011;12020;51.384;6.908;2023-04-26T11:50:59;5.82;;;3.80;;
23684;SDS011;12020;51.384;6.908;2023-04-26T11:53:36;7.80;;;3.63;;
23684;SDS011;12020;51.384;6.908;2023-04-26T11:56:17;7.10;;;3.50;;
23684;SDS011;12020;51.384;6.908;2023-04-26T11:58:48;7.28;;;3.60;;
23684;SDS011;12020;51.384;6.908;2023-04-26T12:01:27;6.22;;;3.30;;
23684;SDS011;12020;51.384;6.908;2023-04-26T12:03:55;5.50;;;3.13;;
23684;SDS011;12020;51.384;6.908;2023-04-26T12:06:29;5.43;;;2.85;;
23684;SDS011;12020;51.384;6.908;2023-04-26T12:09:12;6.30;;;3.25;;
23684;SDS011;12020;51.384;6.908;2023-04-26T12:11:41;4.83;;;3.23;;
23684;SDS011;12020;51.384;6.908;2023-04-26T12:14:14;4.37;;;2.73;;
23684;SDS011;12020;51.384;6.908;2023-04-26T12:16:44;4.20;;;2.80;;
23684;SDS011;12020;51.384;6.908;2023-04-26T12:19:10;5.18;;;2.97;;
23684;SDS011;12020;51.384;6.908;2023-04-26T12:21:40;4.60;;;2.90;;
23684;SDS011;12020;51.384;6.908;2023-04-26T12:24:07;4.72;;;2.95;;
23684;SDS011;12020;51.384;6.908;2023-04-26T12:26:51;5.68;;;3.47;;
23684;SDS011;12020;51.384;6.908;2023-04-26T12:29:18;5.67;;;2.70;;
23684;SDS011;12020;51.384;6.908;2023-04-26T12:31:46;5.38;;;2.90;;
23684;SDS011;12020;51.384;6.908;2023-04-26T12:34:12;6.57;;;3.00;;
23684;SDS011;12020;51.384;6.908;2023-04-26T12:36:45;6.25;;;2.85;;
23684;SDS011;12020;51.384;6.908;2023-04-26T12:39:11;4.97;;;2.78;;
23684;SDS011;12020;51.384;6.908;2023-04-26T12:41:38;5.63;;;3.00;;
23684;SDS011;12020;51.384;6.908;2023-04-26T12:44:06;6.47;;;2.70;;
23684;SDS011;12020;51.384;6.908;2023-04-26T12:46:34;6.68;;;2.72;;
23684;SDS011;12020;51.384;6.908;2023-04-26T12:49:00;4.97;;;2.90;;
23684;SDS011;12020;51.384;6.908;2023-04-26T12:51:27;6.43;;;2.97;;
23684;SDS011;12020;51.384;6.908;2023-04-26T12:53:53;5.32;;;2.65;;
23684;SDS011;12020;51.384;6.908;2023-04-26T12:56:18;4.40;;;2.55;;
23684;SDS011;12020;51.384;6.908;2023-04-26T12:58:45;4.25;;;2.42;;
23684;SDS011;12020;51.384;6.908;2023-04-26T13:01:12;6.55;;;2.78;;
23684;SDS011;12020;51.384;6.908;2023-04-26T13:03:39;4.97;;;3.00;;
23684;SDS011;12020;51.384;6.908;2023-04-26T13:06:05;4.90;;;3.20;;
23684;SDS011;12020;51.384;6.908;2023-04-26T13:08:32;5.10;;;2.95;;
23684;SDS011;12020;51.384;6.908;2023-04-26T13:10:58;5.25;;;3.60;;
23684;SDS011;12020;51.384;6.908;2023-04-26T13:13:24;5.63;;;3.10;;
23684;SDS011;12020;51.384;6.908;2023-04-26T13:15:51;5.50;;;3.00;;
23684;SDS011;12020;51.384;6.908;2023-04-26T13:18:17;4.68;;;2.95;;
23684;SDS011;12020;51.384;6.908;2023-04-26T13:20:43;4.90;;;3.40;;
23684;SDS011;12020;51.384;6.908;2023-04-26T13:23:09;5.55;;;3.13;;
23684;SDS011;12020;51.384;6.908;2023-04-26T13:25:35;6.38;;;3.30;;
23684;SDS011;12020;51.384;6.908;2023-04-26T13:28:02;6.75;;;3.58;;
23684;SDS011;12020;51.384;6.908;2023-04-26T13:30:30;5.43;;;2.87;;
23684;SDS011;12020;51.384;6.908;2023-04-26T13:32:56;5.20;;;3.10;;
23684;SDS011;12020;51.384;6.908;2023-04-26T13:35:24;5.95;;;3.00;;
23684;SDS011;12020;51.384;6.908;2023-04-26T13:37:51;5.88;;;3.10;;
23684;SDS011;12020;51.384;6.908;2023-04-26T13:40:18;6.55;;;3.65;;
23684;SDS011;12020;51.384;6.908;2023-04-26T13:42:46;3.45;;;3.00;;
23684;SDS011;12020;51.384;6.908;2023-04-26T13:45:12;5.85;;;3.10;;
23684;SDS011;12020;51.384;6.908;2023-04-26T13:47:39;5.07;;;3.00;;
23684;SDS011;12020;51.384;6.908;2023-04-26T13:50:05;6.40;;;3.08;;
23684;SDS011;12020;51.384;6.908;2023-04-26T13:52:31;4.90;;;3.60;;
23684;SDS011;12020;51.384;6.908;2023-04-26T13:54:57;6.45;;;3.65;;
23684;SDS011;12020;51.384;6.908;2023-04-26T13:57:24;6.20;;;3.33;;
23684;SDS011;12020;51.384;6.908;2023-04-26T13:59:51;4.80;;;3.30;;
23684;SDS011;12020;51.384;6.908;2023-04-26T14:02:17;6.18;;;3.40;;
23684;SDS011;12020;51.384;6.908;2023-04-26T14:04:44;5.03;;;3.10;;
23684;SDS011;12020;51.384;6.908;2023-04-26T14:07:09;6.43;;;3.27;;
23684;SDS011;12020;51.384;6.908;2023-04-26T14:09:35;7.73;;;3.23;;
23684;SDS011;12020;51.384;6.908;2023-04-26T14:12:01;5.30;;;3.15;;
23684;SDS011;12020;51.384;6.908;2023-04-26T14:14:27;4.13;;;2.88;;
23684;SDS011;12020;51.384;6.908;2023-04-26T14:16:53;5.23;;;2.70;;
23684;SDS011;12020;51.384;6.908;2023-04-26T14:19:20;5.78;;;3.00;;
23684;SDS011;12020;51.384;6.908;2023-04-26T14:21:46;5.53;;;2.93;;
23684;SDS011;12020;51.384;6.908;2023-04-26T14:24:12;5.97;;;3.10;;
23684;SDS011;12020;51.384;6.908;2023-04-26T14:26:38;5.30;;;3.13;;
23684;SDS011;12020;51.384;6.908;2023-04-26T14:29:04;6.00;;;3.60;;
23684;SDS011;12020;51.384;6.908;2023-04-26T14:31:30;6.88;;;3.45;;
23684;SDS011;12020;51.384;6.908;2023-04-26T14:33:57;6.15;;;3.60;;
23684;SDS011;12020;51.384;6.908;2023-04-26T14:36:23;7.47;;;3.83;;
23684;SDS011;12020;51.384;6.908;2023-04-26T14:38:49;5.90;;;3.50;;
23684;SDS011;12020;51.384;6.908;2023-04-26T14:41:15;5.47;;;3.87;;
23684;SDS011;12020;51.384;6.908;2023-04-26T14:43:42;5.60;;;3.53;;
23684;SDS011;12020;51.384;6.908;2023-04-26T14:46:10;6.88;;;4.07;;
23684;SDS011;12020;51.384;6.908;2023-04-26T14:48:39;5.10;;;3.73;;
23684;SDS011;12020;51.384;6.908;2023-04-26T14:51:07;4.63;;;3.50;;
23684;SDS011;12020;51.384;6.908;2023-04-26T14:53:33;4.90;;;3.60;;
23684;SDS011;12020;51.384;6.908;2023-04-26T14:55:59;5.78;;;3.60;;
23684;SDS011;12020;51.384;6.908;2023-04-26T14:58:25;6.93;;;4.03;;
23684;SDS011;12020;51.384;6.908;2023-04-26T15:00:52;4.97;;;3.42;;
23684;SDS011;12020;51.384;6.908;2023-04-26T15:03:18;7.22;;;3.85;;
23684;SDS011;12020;51.384;6.908;2023-04-26T15:05:44;5.93;;;3.67;;
23684;SDS011;12020;51.384;6.908;2023-04-26T15:08:10;7.67;;;3.90;;
23684;SDS011;12020;51.384;6.908;2023-04-26T15:10:36;7.50;;;4.00;;
23684;SDS011;12020;51.384;6.908;2023-04-26T15:13:02;5.90;;;4.00;;